Aeroporto :
LOGIN :

Iscrizione | Disclaimer

   EN    FR    IT 

 










Sommario :    VFR   VFR Marginale   IFR   IFR Intensivo   IFR Molto Intensivo
Visibilità : 
Base nubi : 
>= 8 km
>= 3000ft
5 / 8 km
1000 / 3000 ft
1500m / 5 km
500 / 1000 ft
800 / 1500m
200 / 500 ft
< 800m
< 200 ft
Simboli :   Temporali  Nebbia  Neve Forte  Precipitazioni Forti  Vento > 20 kt
SIGMETs :   Varie  Temporali  Ghiacco  Turbolenza  Onda orograficha  Ceneri Vulcaniche






- Altitudine del aeroporto : 1090 ft
- Codice IATA : CFE


LFLC - Clermont-Ferrand Auvergne

ULTIMO METAR :
  • 302300Z AUTO VRB01KT CAVOK 11/08 Q1010 NOSIG

METARs OBSOLETI :
  • 302230Z AUTO VRB01KT CAVOK 11/08 Q1011 NOSIG
  • 302200Z AUTO VRB02KT CAVOK 12/08 Q1011 NOSIG
  • 302130Z AUTO VRB02KT CAVOK 11/08 Q1011 NOSIG
  • 302100Z AUTO VRB03KT CAVOK 11/08 Q1011 NOSIG
  • 302030Z AUTO 11002KT CAVOK 12/09 Q1012 NOSIG

TAF TAF LFLC
Valido dal 30 a 15 ore il 01 a 15 ore UTC


301400Z 3015/0115 VRB02KT CAVOK
BECMG 3020/3022 18012KT
BECMG 0106/0108 BKN060
TEMPO 0108/0111 RA
BECMG 0110/0111 24012KT
ATIS : +33 4 73 62 74 38



MetMap, La meteo Aeronautica in un colpo d'occhio ! - Copyright ORBIFLY Dicembre 2007 - Disclaimer

ORBIFLY MET'MAP TEAM :

Programmazione e sviluppo : Alexandra Zaïnal
Concezione : Baudouin d'Aumeries
Aiuto per la programmazione : Marc-Olivier Méhu
Supporto tecnico e logistico : Manuel Goepfert
Aiuto per la traduzione : Arnaldo La Scala

Contatto : metmap@orbifly.com




FONTI E CREDITI :

   NOAA